Data for 11/24/2005

Time Sea-Level Adjusted Pressure Absolute Pressure Temperature Relative Humidity Dew Point   
(mb) (inHg) (mb) (inHg) (C) (F) (%) (C) (F)
00:05 1020 30.12 849 25.07 1.3 34.4 52 -7.6 18.4
00:10 1020 30.12 849 25.07 2 35.6 49 -7.6 18.3
00:15 1020 30.12 849 25.07 2.2 36 48 -7.6 18.2
00:20 1020 30.12 849 25.07 2.2 35.9 49 -7.4 18.7
00:25 1020 30.12 849 25.07 2.1 35.7 50 -7.4 18.8
00:30 1020 30.12 849 25.07 2.2 35.9 49 -7.5 18.6
00:35 1020 30.12 849 25.07 2.3 36.2 48 -7.5 18.4
00:40 1020 30.12 849 25.07 2.2 35.9 49 -7.5 18.6
00:45 1020 30.12 849 25.07 1.9 35.5 49 -7.6 18.3
00:50 1020 30.12 849 25.07 1.9 35.4 48 -8 17.6
00:55 1020 30.12 849 25.07 2.4 36.3 47 -7.8 18
01:00 1020 30.12 849 25.07 1.9 35.5 50 -7.4 18.8
01:05 1020 30.12 849 25.07 1.5 34.6 53 -7 19.4
01:10 1020 30.12 849 25.07 1.6 34.9 52 -7.1 19.2
01:15 1020 30.12 849 25.07 1.8 35.3 52 -7 19.4
01:20 1020 30.12 849 25.07 1.3 34.4 54 -6.9 19.6
01:25 1020 30.12 849 25.07 0.9 33.5 56 -7 19.3
01:30 1020 30.12 849 25.07 0.8 33.4 56 -7 19.3
01:35 1020 30.12 849 25.07 1 33.8 55 -7 19.4
01:40 1020 30.12 849 25.07 0.8 33.4 56 -7.1 19.3
01:45 1020 30.12 849 25.07 0.6 33.1 56 -7.1 19.2
01:50 1020 30.12 849 25.07 0.8 33.5 56 -7.1 19.2
01:55 1020 30.12 849 25.07 1.1 34 53 -7.5 18.6
02:00 1020 30.12 849 25.07 1.8 35.2 50 -7.5 18.6
02:05 1020 30.12 849 25.07 2.1 35.8 49 -7.4 18.7
02:10 1020 30.12 849 25.07 2.5 36.4 49 -7.2 19
02:15 1020 30.12 849 25.07 2.5 36.6 48 -7.4 18.7
02:20 1020 30.12 849 25.07 2.2 35.9 51 -6.9 19.6
02:25 1020 30.12 849 25.07 1.3 34.3 54 -7.1 19.3
02:30 1020 30.12 849 25.07 1.3 34.3 54 -7 19.4
02:35 1020 30.12 849 25.07 1.3 34.3 55 -6.7 19.9
02:40 1020 30.12 849 25.07 1.5 34.6 53 -7.1 19.2
02:45 1020 30.12 849 25.07 1.5 34.7 54 -6.8 19.8
02:50 1020 30.12 849 25.07 1.4 34.6 54 -6.8 19.7
02:55 1020 30.12 849 25.07 0.9 33.7 58 -6.4 20.5
03:00 1020 30.12 849 25.07 0 32 61 -6.6 20.1
03:05 1020 30.12 849 25.07 -0 31.9 60 -6.9 19.5
03:10 1020 30.12 849 25.07 0.3 32.6 59 -6.9 19.7
03:15 1020 30.12 849 25.07 0.5 32.8 58 -6.9 19.6
03:20 1020 30.12 849 25.07 0.6 33 57 -6.9 19.5
03:25 1020 30.12 849 25.07 0.9 33.5 56 -6.9 19.6
03:30 1020 30.12 849 25.07 0.9 33.7 56 -6.8 19.8
03:35 1020 30.12 849 25.07 0.5 32.9 58 -6.9 19.5
03:40 1020 30.12 849 25.07 -0.1 31.8 61 -6.7 19.9
03:45 1020 30.12 849 25.07 -0.6 30.9 63 -6.9 19.6
03:50 1020 30.12 849 25.07 -0.4 31.2 61 -7 19.5
03:55 1020 30.12 849 25.07 -0.3 31.5 61 -7 19.4
04:00 1020 30.12 849 25.07 -0.2 31.7 61 -6.8 19.8
04:05 1020 30.12 849 25.07 -0.3 31.4 62 -6.7 19.9
04:10 1020 30.12 849 25.07 -0.5 31.1 62 -6.8 19.7
04:15 1020 30.12 849 25.07 -0.4 31.3 62 -6.8 19.7
04:20 1020 30.12 849 25.07 -0.3 31.4 62 -6.8 19.8
04:25 1020 30.12 849 25.07 -0.5 31.2 62 -6.9 19.6
04:30 1020 30.12 849 25.07 -0.3 31.4 62 -6.8 19.7
04:35 1020 30.12 849 25.07 -0.5 31.2 62 -6.9 19.5
04:40 1020 30.12 849 25.07 -0.3 31.5 60 -7.1 19.3
04:45 1020 30.12 849 25.07 0.2 32.4 59 -6.9 19.5
04:50 1020 30.12 849 25.07 0.3 32.5 59 -6.8 19.7
04:55 1020 30.12 849 25.07 -0.2 31.7 62 -6.7 20
05:00 1020 30.12 849 25.07 -1 30.2 66 -6.6 20.1
05:05 1020 30.12 849 25.07 -1 30.2 63 -7.1 19.2
05:10 1020 30.12 849 25.07 -0.6 31 62 -7 19.5
05:15 1020 30.12 849 25.07 -0.4 31.3 62 -6.9 19.6
05:20 1020 30.12 849 25.07 -0.6 31 63 -6.8 19.7
05:25 1020 30.12 849 25.07 -0.8 30.5 64 -6.8 19.8
05:30 1020 30.12 849 25.07 -0.9 30.4 65 -6.8 19.8
05:35 1020 30.12 849 25.07 -0.9 30.3 64 -6.9 19.6
05:40 1019 30.09 849 25.07 -0.7 30.7 63 -6.9 19.6
05:45 1019 30.09 849 25.07 -0.6 30.9 62 -6.9 19.5
05:50 1019 30.09 849 25.07 -0.5 31.1 61 -7 19.4
05:55 1019 30.09 848 25.04 -0.6 31 62 -7 19.4
06:00 1019 30.09 848 25.04 -0.4 31.3 61 -7 19.4
06:05 1019 30.09 848 25.04 -0.9 30.4 64 -6.9 19.6
06:10 1019 30.09 848 25.04 -0.6 31 61 -7.2 19
06:15 1019 30.09 848 25.04 -0.1 31.7 60 -7 19.4
06:20 1019 30.09 848 25.04 -0.5 31 62 -6.8 19.7
06:25 1019 30.09 848 25.04 -0.9 30.5 64 -6.9 19.5
06:30 1019 30.09 848 25.04 -1.5 29.4 67 -6.8 19.8
06:35 1019 30.09 848 25.04 -2 28.4 69 -7 19.4
06:40 1019 30.09 848 25.04 -1.8 28.7 67 -7.1 19.2
06:45 1019 30.09 848 25.04 -1.7 29 67 -7 19.3
06:50 1019 30.09 848 25.04 -1.3 29.6 66 -7 19.5
06:55 1019 30.09 848 25.04 -1.1 30 64 -7 19.4
07:00 1019 30.09 848 25.04 -0.8 30.6 63 -7 19.4
07:05 1019 30.09 848 25.04 -0.7 30.7 63 -7 19.5
07:10 1019 30.09 848 25.04 -0.6 31 62 -7 19.4
07:15 1019 30.09 848 25.04 -0.4 31.3 62 -6.8 19.7
07:20 1019 30.09 848 25.04 -0.5 31.1 63 -6.8 19.8
07:25 1019 30.09 848 25.04 -0.7 30.8 63 -6.9 19.6
07:30 1019 30.09 848 25.04 -0.7 30.8 63 -7 19.4
07:35 1019 30.09 848 25.04 -0.7 30.8 62 -7.1 19.3
07:40 1019 30.09 848 25.04 -0.5 31.1 62 -7 19.4
07:45 1019 30.09 848 25.04 -0.4 31.2 61 -7 19.3
07:50 1019 30.09 848 25.04 -0.2 31.6 60 -7 19.3
07:55 1019 30.09 849 25.07 0 32 60 -6.9 19.5
08:00 1019 30.09 849 25.07 0.4 32.7 58 -6.9 19.5
08:05 1019 30.09 849 25.07 0.6 33.1 57 -6.9 19.6
08:10 1019 30.09 849 25.07 0.8 33.5 56 -7 19.3
08:15 1019 30.09 849 25.07 0 32.1 61 -6.7 20
08:20 1019 30.09 849 25.07 -0.8 30.5 63 -7 19.4
08:25 1019 30.09 849 25.07 -1.3 29.7 64 -7.2 19.1
08:30 1019 30.09 849 25.07 -0.3 31.4 60 -7.2 19
08:35 1019 30.09 849 25.07 0 32 59 -7 19.4
08:40 1019 30.09 849 25.07 0.2 32.4 58 -7.1 19.2
08:45 1019 30.09 849 25.07 0.4 32.8 57 -7 19.3
08:50 1019 30.09 849 25.07 0.9 33.6 55 -7.2 19.1
08:55 1019 30.09 849 25.07 1.4 34.4 55 -6.8 19.8
09:00 1019 30.09 849 25.07 1.7 35.1 53 -6.8 19.7
09:05 1019 30.09 849 25.07 2 35.6 53 -6.5 20.2
09:10 1020 30.12 849 25.07 2 35.6 52 -6.8 19.8
09:15 1019 30.09 849 25.07 1.8 35.3 53 -6.7 20
09:20 1019 30.09 849 25.07 2.1 35.7 53 -6.6 20.2
09:25 1019 30.09 849 25.07 2.7 36.9 51 -6.4 20.5
09:30 1019 30.09 849 25.07 2.9 37.1 51 -6.3 20.7
09:35 1019 30.09 849 25.07 3.6 38.5 48 -6.5 20.4
09:40 1020 30.12 849 25.07 3.5 38.3 48 -6.5 20.2
09:45 1020 30.12 849 25.07 4.2 39.6 46 -6.4 20.5
09:50 1019 30.09 849 25.07 4.5 40 45 -6.4 20.4
09:55 1019 30.09 849 25.07 4.5 40.1 44 -6.6 20.2
10:00 1019 30.09 849 25.07 4.9 40.9 44 -6.4 20.5
10:05 1019 30.09 849 25.07 5.3 41.5 42 -6.5 20.3
10:10 1019 30.09 849 25.07 5.3 41.6 43 -6.2 20.8
10:15 1019 30.09 849 25.07 5.1 41.1 44 -6.3 20.7
10:20 1019 30.09 849 25.07 4.7 40.5 46 -5.9 21.3
10:25 1019 30.09 849 25.07 4.4 40 46 -6.2 20.9
10:30 1019 30.09 849 25.07 5.4 41.6 42 -6.4 20.4
10:35 1019 30.09 849 25.07 6 42.8 42 -6.1 21
10:40 1019 30.09 848 25.04 6.5 43.7 40 -6.3 20.7
10:45 1019 30.09 849 25.07 7 44.5 39 -6.1 21.1
10:50 1019 30.09 849 25.07 7 44.6 39 -5.9 21.4
10:55 1019 30.09 849 25.07 7 44.7 39 -5.9 21.4
11:00 1019 30.09 849 25.07 6.2 43.2 41 -6 21.1
11:05 1019 30.09 848 25.04 7 44.6 39 -6.1 21
11:10 1019 30.09 848 25.04 7.6 45.6 38 -6 21.2
11:15 1019 30.09 848 25.04 7.5 45.5 39 -5.7 21.8
11:20 1019 30.09 848 25.04 7.4 45.3 39 -5.6 21.9
11:25 1019 30.09 848 25.04 7.1 44.8 40 -5.6 21.9
11:30 1019 30.09 848 25.04 7.3 45.1 39 -5.7 21.8
11:35 1019 30.09 848 25.04 7.2 44.9 41 -5.3 22.4
11:40 1019 30.09 848 25.04 7.2 44.9 40 -5.5 22.2
11:45 1018 30.06 848 25.04 7.1 44.9 41 -5.2 22.6
11:50 1018 30.06 848 25.04 7.2 45 40 -5.5 22.2
11:55 1018 30.06 848 25.04 7.1 44.7 40 -5.5 22.1
12:00 1018 30.06 848 25.04 7.8 46.1 38 -5.6 22
12:05 1018 30.06 848 25.04 8.3 46.9 39 -5 23
12:10 1018 30.06 848 25.04 8.2 46.7 39 -5.1 22.9
12:15 1018 30.06 848 25.04 8.2 46.7 39 -4.9 23.1
12:20 1018 30.06 848 25.04 8.3 47 38 -5.2 22.7
12:25 1018 30.06 848 25.04 7 44.6 43 -4.7 23.6
12:30 1018 30.06 847 25.01 7.2 45 41 -5.2 22.7
12:35 1018 30.06 847 25.01 7.3 45.2 42 -4.8 23.3
12:40 1018 30.06 847 25.01 7 44.6 42 -5 23
12:45 1018 30.06 847 25.01 6.7 44 44 -4.6 23.7
12:50 1018 30.06 847 25.01 7.4 45.2 42 -4.6 23.7
12:55 1018 30.06 847 25.01 8.4 47.1 39 -4.7 23.5
13:00 1018 30.06 847 25.01 8.5 47.2 41 -4 24.8
13:05 1018 30.06 847 25.01 8.4 47 40 -4.6 23.8
13:10 1018 30.06 847 25.01 8.8 47.8 38 -4.8 23.4
13:15 1018 30.06 847 25.01 8.8 47.8 39 -4.3 24.2
13:20 1018 30.06 847 25.01 8.8 47.8 39 -4.5 23.8
13:25 1018 30.06 847 25.01 8.8 47.8 39 -4.3 24.3
13:30 1018 30.06 847 25.01 8.4 47.2 38 -4.9 23.1
13:35 1018 30.06 847 25.01 8.8 47.8 38 -4.7 23.5
13:40 1018 30.06 847 25.01 8.8 47.9 38 -4.7 23.6
13:45 1018 30.06 847 25.01 8.7 47.6 37 -5.1 22.8
13:50 1018 30.06 847 25.01 8.7 47.7 37 -5 23
13:55 1018 30.06 847 25.01 9 48.2 38 -4.6 23.7
14:00 1018 30.06 847 25.01 9.2 48.5 38 -4.5 23.8
14:05 1018 30.06 847 25.01 9.3 48.7 38 -4.3 24.2
14:10 1018 30.06 847 25.01 9.2 48.6 39 -4.1 24.6
14:15 1018 30.06 847 25.01 9.2 48.5 37 -4.6 23.8
14:20 1018 30.06 847 25.01 9.6 49.3 37 -4.2 24.4
14:25 1018 30.06 847 25.01 9.5 49.1 38 -4 24.8
14:30 1017 30.03 847 25.01 8.6 47.4 40 -4.2 24.4
14:35 1017 30.03 847 25.01 8.7 47.6 40 -4.3 24.3
14:40 1017 30.03 847 25.01 8.9 48.1 40 -4 24.7
14:45 1017 30.03 847 25.01 8.7 47.6 40 -4.2 24.4
14:50 1017 30.03 847 25.01 8.8 47.8 39 -4.4 24.1
14:55 1017 30.03 847 25.01 8.5 47.2 42 -3.8 25.2
15:00 1017 30.03 847 25.01 8.3 47 42 -3.7 25.4
15:05 1017 30.03 847 25.01 8.5 47.4 41 -3.9 25
15:10 1017 30.03 847 25.01 8.6 47.4 41 -3.9 25
15:15 1017 30.03 847 25.01 8.7 47.6 40 -4 24.7
15:20 1017 30.03 847 25.01 8.6 47.5 43 -3.3 26
15:25 1017 30.03 847 25.01 8 46.4 46 -2.8 26.9
15:30 1017 30.03 847 25.01 8.2 46.8 44 -3.2 26.2
15:35 1017 30.03 847 25.01 8.4 47 43 -3.6 25.5
15:40 1017 30.03 847 25.01 8.7 47.7 41 -3.9 24.9
15:45 1017 30.03 846 24.98 8.4 47.2 45 -2.9 26.7
15:50 1017 30.03 846 24.98 7.9 46.2 44 -3.5 25.7
15:55 1017 30.03 846 24.98 8 46.3 40 -4.7 23.5
16:00 1017 30.03 846 24.98 8 46.4 40 -4.6 23.6
16:05 1017 30.03 846 24.98 8.1 46.5 40 -4.8 23.4
16:10 1017 30.03 846 24.98 8 46.4 38 -5.3 22.4
16:15 1017 30.03 846 24.98 8.1 46.5 38 -5.3 22.4
16:20 1017 30.03 846 24.98 8.3 46.9 38 -5.4 22.3
16:25 1017 30.03 846 24.98 7.6 45.6 38 -5.9 21.4
16:30 1017 30.03 846 24.98 7.3 45.2 39 -5.7 21.7
16:35 1017 30.03 846 24.98 6.6 43.9 42 -5.2 22.6
16:40 1017 30.03 846 24.98 6 42.7 45 -5 23
16:45 1017 30.03 846 24.98 5.5 41.9 45 -5.4 22.3
16:50 1017 30.03 846 24.98 4.9 40.9 47 -5.6 22
16:55 1017 30.03 846 24.98 4.6 40.4 46 -5.9 21.4
17:00 1017 30.03 846 24.98 4.8 40.7 46 -5.9 21.4
17:05 1017 30.03 846 24.98 4.3 39.7 48 -5.7 21.7
17:10 1017 30.03 846 24.98 4 39.1 48 -6.2 20.9
17:15 1017 30.03 846 24.98 4.2 39.5 47 -6.1 20.9
17:20 1017 30.03 846 24.98 4.5 40.1 47 -6 21.3
17:25 1017 30.03 846 24.98 4.4 39.8 49 -5.5 22.2
17:30 1017 30.03 846 24.98 4.3 39.8 49 -5.6 22
17:35 1017 30.03 846 24.98 4.1 39.3 49 -5.6 22
17:40 1017 30.03 846 24.98 3.7 38.7 50 -5.7 21.8
17:45 1017 30.03 846 24.98 3.9 39 48 -6.1 21
17:50 1017 30.03 846 24.98 3.6 38.5 49 -6.1 21.1
17:55 1017 30.03 846 24.98 3.5 38.3 49 -6.3 20.7
18:00 1017 30.03 846 24.98 3.6 38.5 47 -6.7 20
18:05 1017 30.03 846 24.98 4.1 39.3 47 -6.4 20.6
18:10 1017 30.03 846 24.98 4 39.2 47 -6.3 20.7
18:15 1017 30.03 846 24.98 3.9 39.1 49 -5.8 21.6
18:20 1017 30.03 846 24.98 3.8 38.8 49 -6 21.2
18:25 1017 30.03 846 24.98 4.1 39.4 48 -6 21.1
18:30 1016 30 846 24.98 3.9 39 49 -5.9 21.4
18:35 1017 30.03 846 24.98 3.5 38.3 50 -6 21.3
18:40 1017 30.03 846 24.98 3.3 37.9 50 -6.1 21
18:45 1017 30.03 846 24.98 3.1 37.5 51 -6.1 20.9
18:50 1017 30.03 846 24.98 2.9 37.2 51 -6.1 21
18:55 1017 30.03 846 24.98 2.7 36.9 54 -5.7 21.8
19:00 1017 30.03 846 24.98 2 35.6 55 -6.2 20.8
19:05 1017 30.03 846 24.98 2 35.7 55 -6.2 20.9
19:10 1017 30.03 846 24.98 2.1 35.7 52 -6.7 19.9
19:15 1017 30.03 846 24.98 2.3 36.1 51 -6.8 19.8
19:20 1017 30.03 846 24.98 2.7 36.8 49 -7.1 19.3
19:25 1017 30.03 846 24.98 3 37.4 47 -7.3 18.9
19:30 1017 30.03 846 24.98 3.4 38.1 45 -7.5 18.5
19:35 1017 30.03 846 24.98 3.4 38.2 46 -7.1 19.2
19:40 1017 30.03 846 24.98 3.2 37.7 47 -7 19.5
19:45 1017 30.03 846 24.98 3.1 37.6 45 -7.7 18.1
19:50 1017 30.03 846 24.98 3.5 38.3 45 -7.5 18.5
19:55 1017 30.03 846 24.98 3.4 38.2 46 -7.1 19.1
20:00 1017 30.03 846 24.98 3.2 37.7 48 -6.9 19.5
20:05 1017 30.03 846 24.98 2.7 36.9 48 -7.3 18.9
20:10 1017 30.03 846 24.98 2.8 37 47 -7.5 18.6
20:15 1017 30.03 846 24.98 3.2 37.8 45 -7.5 18.5
20:20 1017 30.03 846 24.98 3.2 37.8 46 -7.2 19.1
20:25 1017 30.03 846 24.98 2.9 37.2 48 -7.1 19.2
20:30 1017 30.03 846 24.98 2.5 36.6 48 -7.3 18.9
20:35 1017 30.03 846 24.98 2.5 36.6 48 -7.3 18.8
20:40 1017 30.03 846 24.98 2.7 36.8 46 -7.9 17.9
20:45 1017 30.03 846 24.98 3 37.4 45 -7.9 17.8
20:50 1017 30.03 846 24.98 3.7 38.7 43 -7.7 18.1
20:55 1016 30 846 24.98 3.1 37.5 46 -7.5 18.5
21:00 1016 30 846 24.98 2.4 36.4 51 -6.8 19.8
21:05 1016 30 846 24.98 2.1 35.7 53 -6.6 20.1
21:10 1016 30 846 24.98 1.3 34.3 54 -7 19.5
21:15 1016 30 846 24.98 1.1 34.1 54 -7.2 19.1
21:20 1016 30 846 24.98 0.9 33.6 54 -7.5 18.6
21:25 1016 30 846 24.98 1 33.8 53 -7.5 18.4
21:30 1016 30 846 24.98 1.8 35.2 48 -8 17.5
21:35 1016 30 846 24.98 2.1 35.7 47 -8 17.6
21:40 1016 30 846 24.98 2 35.5 49 -7.6 18.3
21:45 1016 30 846 24.98 1.5 34.7 51 -7.6 18.4
21:50 1016 30 845 24.95 1 33.8 52 -7.7 18.1
21:55 1016 30 846 24.98 1 33.7 53 -7.5 18.5
22:00 1016 30 846 24.98 0.5 33 55 -7.5 18.5
22:05 1016 30 845 24.95 0.5 32.8 52 -8.2 17.2
22:10 1016 30 845 24.95 0.8 33.5 51 -8.1 17.4
22:15 1016 30 845 24.95 0.7 33.3 52 -8.1 17.4
22:20 1016 30 845 24.95 0.6 33.1 53 -8 17.6
22:25 1016 30 845 24.95 0.5 32.9 52 -8.3 17.1
22:30 1016 30 845 24.95 0.7 33.2 51 -8.4 16.9
22:35 1016 30 845 24.95 1 33.8 50 -8.4 16.9
22:40 1016 30 845 24.95 1.2 34.1 49 -8.4 16.9
22:45 1016 30 845 24.95 1.2 34.1 49 -8.4 16.8
22:50 1016 30 845 24.95 1.3 34.3 47 -8.7 16.3
22:55 1016 30 845 24.95 1.3 34.3 48 -8.7 16.4
23:00 1016 30 845 24.95 1 33.9 49 -8.4 16.9
23:05 1016 30 845 24.95 0.8 33.4 47 -9.2 15.5
23:10 1016 30 845 24.95 1.5 34.6 45 -9.2 15.4
23:15 1015 29.97 845 24.95 1.9 35.4 43 -9.4 15.1
23:20 1015 29.97 845 24.95 2.3 36.2 40 -9.8 14.3
23:25 1015 29.97 845 24.95 2.8 37.1 39 -9.7 14.5
23:30 1015 29.97 844 24.92 2.6 36.8 41 -9.5 14.9
23:35 1015 29.97 844 24.92 2 35.6 44 -9.1 15.6
23:40 1015 29.97 844 24.92 1.4 34.6 46 -8.9 16
23:45 1015 29.97 844 24.92 0.9 33.7 47 -9.1 15.7
23:50 1015 29.97 844 24.92 1.1 33.9 47 -9 15.7
23:55 1015 29.97 844 24.92 1.4 34.5 46 -8.9 16
24:00 1015 29.97 844 24.92 1.1 34 48 -8.6 16.5